sensor_id;sensor_type;location;lat;lon;timestamp;pressure;altitude;pressure_sealevel;temperature;humidity
60099;BME280;62818;49.394;8.686;2024-02-16T00:00:16;100204.59;;;14.25;100.00
60099;BME280;62818;49.394;8.686;2024-02-16T00:05:18;100206.69;;;14.29;100.00
60099;BME280;62818;49.394;8.686;2024-02-16T00:10:18;100202.19;;;14.56;100.00
60099;BME280;62818;49.394;8.686;2024-02-16T00:15:20;100206.66;;;13.56;100.00
60099;BME280;62818;49.394;8.686;2024-02-16T00:20:20;100197.56;;;13.97;100.00
60099;BME280;62818;49.394;8.686;2024-02-16T00:25:22;100196.03;;;13.69;100.00
60099;BME280;62818;49.394;8.686;2024-02-16T00:30:23;100188.56;;;14.05;100.00
60099;BME280;62818;49.394;8.686;2024-02-16T00:35:23;100207.38;;;13.90;100.00
60099;BME280;62818;49.394;8.686;2024-02-16T00:40:24;100200.06;;;13.11;100.00
60099;BME280;62818;49.394;8.686;2024-02-16T00:45:24;100177.31;;;13.49;100.00
60099;BME280;62818;49.394;8.686;2024-02-16T00:50:25;100168.00;;;13.86;100.00
60099;BME280;62818;49.394;8.686;2024-02-16T00:55:26;100171.88;;;12.89;100.00
60099;BME280;62818;49.394;8.686;2024-02-16T01:00:27;100166.81;;;13.00;100.00
60099;BME280;62818;49.394;8.686;2024-02-16T01:05:27;100172.59;;;14.11;100.00
60099;BME280;62818;49.394;8.686;2024-02-16T01:10:27;100177.66;;;13.33;100.00
60099;BME280;62818;49.394;8.686;2024-02-16T01:15:28;100186.81;;;13.65;100.00
60099;BME280;62818;49.394;8.686;2024-02-16T01:20:28;100200.13;;;12.62;100.00
60099;BME280;62818;49.394;8.686;2024-02-16T01:25:31;100184.47;;;14.02;100.00
60099;BME280;62818;49.394;8.686;2024-02-16T01:30:32;100188.47;;;13.66;100.00
60099;BME280;62818;49.394;8.686;2024-02-16T01:35:33;100191.53;;;13.69;100.00
60099;BME280;62818;49.394;8.686;2024-02-16T01:40:33;100181.06;;;13.61;100.00
60099;BME280;62818;49.394;8.686;2024-02-16T01:45:34;100184.00;;;13.86;100.00
60099;BME280;62818;49.394;8.686;2024-02-16T01:50:35;100189.81;;;14.09;100.00
60099;BME280;62818;49.394;8.686;2024-02-16T01:55:36;100178.50;;;13.33;100.00
60099;BME280;62818;49.394;8.686;2024-02-16T02:00:36;100177.84;;;13.72;100.00
60099;BME280;62818;49.394;8.686;2024-02-16T02:05:46;100174.50;;;13.64;100.00
60099;BME280;62818;49.394;8.686;2024-02-16T02:10:47;100172.97;;;13.95;100.00
60099;BME280;62818;49.394;8.686;2024-02-16T02:15:47;100175.06;;;13.53;100.00
60099;BME280;62818;49.394;8.686;2024-02-16T02:20:48;100167.78;;;13.20;100.00
60099;BME280;62818;49.394;8.686;2024-02-16T02:25:48;100167.03;;;13.39;100.00
60099;BME280;62818;49.394;8.686;2024-02-16T02:30:50;100170.84;;;12.90;100.00
60099;BME280;62818;49.394;8.686;2024-02-16T02:35:51;100169.81;;;13.66;100.00
60099;BME280;62818;49.394;8.686;2024-02-16T02:40:51;100162.94;;;13.30;100.00
60099;BME280;62818;49.394;8.686;2024-02-16T02:45:52;100157.19;;;13.33;100.00
60099;BME280;62818;49.394;8.686;2024-02-16T02:50:52;100146.63;;;13.60;100.00
60099;BME280;62818;49.394;8.686;2024-02-16T02:55:53;100154.13;;;13.30;100.00
60099;BME280;62818;49.394;8.686;2024-02-16T03:00:54;100159.47;;;13.02;100.00
60099;BME280;62818;49.394;8.686;2024-02-16T03:05:55;100153.69;;;12.64;100.00
60099;BME280;62818;49.394;8.686;2024-02-16T03:10:55;100151.47;;;13.36;100.00
60099;BME280;62818;49.394;8.686;2024-02-16T03:15:57;100142.06;;;13.41;100.00
60099;BME280;62818;49.394;8.686;2024-02-16T03:20:57;100145.38;;;12.74;100.00
60099;BME280;62818;49.394;8.686;2024-02-16T03:26:01;100159.84;;;13.33;100.00
60099;BME280;62818;49.394;8.686;2024-02-16T03:31:02;100151.03;;;13.33;100.00
60099;BME280;62818;49.394;8.686;2024-02-16T03:36:05;100148.63;;;13.45;100.00
60099;BME280;62818;49.394;8.686;2024-02-16T03:41:05;100162.81;;;12.49;100.00
60099;BME280;62818;49.394;8.686;2024-02-16T03:46:06;100151.16;;;13.59;100.00
60099;BME280;62818;49.394;8.686;2024-02-16T03:51:07;100155.25;;;13.08;100.00
60099;BME280;62818;49.394;8.686;2024-02-16T03:56:08;100161.44;;;12.59;100.00
60099;BME280;62818;49.394;8.686;2024-02-16T04:01:08;100163.03;;;12.54;100.00
60099;BME280;62818;49.394;8.686;2024-02-16T04:06:09;100166.16;;;13.19;100.00
60099;BME280;62818;49.394;8.686;2024-02-16T04:11:13;100174.84;;;13.41;100.00
60099;BME280;62818;49.394;8.686;2024-02-16T04:16:15;100190.34;;;12.69;100.00
60099;BME280;62818;49.394;8.686;2024-02-16T04:21:15;100202.94;;;12.12;100.00
60099;BME280;62818;49.394;8.686;2024-02-16T04:26:16;100200.00;;;13.04;100.00
60099;BME280;62818;49.394;8.686;2024-02-16T04:31:17;100198.81;;;13.07;100.00
60099;BME280;62818;49.394;8.686;2024-02-16T04:36:17;100200.00;;;13.04;100.00
60099;BME280;62818;49.394;8.686;2024-02-16T04:41:21;100212.19;;;12.37;100.00
60099;BME280;62818;49.394;8.686;2024-02-16T04:46:22;100208.44;;;12.80;100.00
60099;BME280;62818;49.394;8.686;2024-02-16T04:51:22;100207.94;;;13.25;100.00
60099;BME280;62818;49.394;8.686;2024-02-16T04:56:23;100209.13;;;12.61;100.00
60099;BME280;62818;49.394;8.686;2024-02-16T05:01:23;100209.47;;;12.58;100.00
60099;BME280;62818;49.394;8.686;2024-02-16T05:06:24;100199.38;;;13.02;100.00
60099;BME280;62818;49.394;8.686;2024-02-16T05:11:38;100197.53;;;12.69;100.00
60099;BME280;62818;49.394;8.686;2024-02-16T05:16:45;100190.44;;;13.51;100.00
60099;BME280;62818;49.394;8.686;2024-02-16T05:21:46;100201.91;;;12.34;100.00
60099;BME280;62818;49.394;8.686;2024-02-16T05:26:47;100187.66;;;12.90;100.00
60099;BME280;62818;49.394;8.686;2024-02-16T05:31:50;100186.47;;;12.99;100.00
60099;BME280;62818;49.394;8.686;2024-02-16T05:36:51;100190.41;;;13.44;100.00
60099;BME280;62818;49.394;8.686;2024-02-16T05:41:55;100194.91;;;12.75;100.00
60099;BME280;62818;49.394;8.686;2024-02-16T05:46:56;100200.72;;;13.13;100.00
60099;BME280;62818;49.394;8.686;2024-02-16T05:51:57;100194.66;;;13.04;100.00
60099;BME280;62818;49.394;8.686;2024-02-16T05:57:17;100184.69;;;12.79;100.00
60099;BME280;62818;49.394;8.686;2024-02-16T06:02:18;100198.84;;;12.09;100.00
60099;BME280;62818;49.394;8.686;2024-02-16T06:07:19;100209.75;;;11.78;100.00
60099;BME280;62818;49.394;8.686;2024-02-16T06:12:19;100224.13;;;12.05;100.00
60099;BME280;62818;49.394;8.686;2024-02-16T06:17:20;100225.59;;;11.57;100.00
60099;BME280;62818;49.394;8.686;2024-02-16T06:22:21;100238.41;;;11.68;100.00
60099;BME280;62818;49.394;8.686;2024-02-16T06:27:21;100241.66;;;12.00;100.00
60099;BME280;62818;49.394;8.686;2024-02-16T06:32:21;100244.63;;;12.11;100.00
60099;BME280;62818;49.394;8.686;2024-02-16T06:37:22;100251.28;;;12.22;100.00
60099;BME280;62818;49.394;8.686;2024-02-16T06:42:22;100261.41;;;12.33;100.00
60099;BME280;62818;49.394;8.686;2024-02-16T06:47:23;100262.19;;;12.48;100.00
60099;BME280;62818;49.394;8.686;2024-02-16T06:52:26;100261.00;;;12.78;100.00
60099;BME280;62818;49.394;8.686;2024-02-16T06:57:26;100268.28;;;12.27;100.00
60099;BME280;62818;49.394;8.686;2024-02-16T07:02:27;100278.94;;;12.48;100.00
60099;BME280;62818;49.394;8.686;2024-02-16T07:07:27;100276.41;;;12.40;100.00
60099;BME280;62818;49.394;8.686;2024-02-16T07:12:28;100291.91;;;12.58;100.00
60099;BME280;62818;49.394;8.686;2024-02-16T07:17:28;100300.94;;;12.85;100.00
60099;BME280;62818;49.394;8.686;2024-02-16T07:22:30;100301.41;;;13.09;100.00
60099;BME280;62818;49.394;8.686;2024-02-16T07:27:32;100300.31;;;13.31;100.00
60099;BME280;62818;49.394;8.686;2024-02-16T07:32:33;100309.19;;;13.38;100.00
60099;BME280;62818;49.394;8.686;2024-02-16T07:37:33;100308.13;;;13.67;100.00
60099;BME280;62818;49.394;8.686;2024-02-16T07:42:37;100302.31;;;13.98;100.00
60099;BME280;62818;49.394;8.686;2024-02-16T07:47:42;100312.84;;;14.19;100.00
60099;BME280;62818;49.394;8.686;2024-02-16T07:52:43;100316.53;;;14.18;100.00
60099;BME280;62818;49.394;8.686;2024-02-16T07:57:44;100321.06;;;14.24;100.00
60099;BME280;62818;49.394;8.686;2024-02-16T08:02:45;100328.59;;;14.68;100.00
60099;BME280;62818;49.394;8.686;2024-02-16T08:07:48;100333.94;;;14.74;100.00
60099;BME280;62818;49.394;8.686;2024-02-16T08:12:49;100333.47;;;14.38;100.00
60099;BME280;62818;49.394;8.686;2024-02-16T08:17:51;100332.25;;;14.00;100.00
60099;BME280;62818;49.394;8.686;2024-02-16T08:22:52;100331.50;;;13.72;100.00
60099;BME280;62818;49.394;8.686;2024-02-16T08:27:52;100334.94;;;13.59;100.00
60099;BME280;62818;49.394;8.686;2024-02-16T08:32:53;100342.09;;;13.59;100.00
60099;BME280;62818;49.394;8.686;2024-02-16T08:37:54;100346.16;;;13.55;100.00
60099;BME280;62818;49.394;8.686;2024-02-16T08:42:54;100357.66;;;13.62;100.00
60099;BME280;62818;49.394;8.686;2024-02-16T08:47:55;100363.44;;;13.65;100.00
60099;BME280;62818;49.394;8.686;2024-02-16T08:52:57;100356.84;;;13.61;100.00
60099;BME280;62818;49.394;8.686;2024-02-16T08:57:57;100352.84;;;13.78;100.00
60099;BME280;62818;49.394;8.686;2024-02-16T09:02:58;100361.06;;;13.77;100.00
60099;BME280;62818;49.394;8.686;2024-02-16T09:07:58;100359.84;;;13.86;100.00
60099;BME280;62818;49.394;8.686;2024-02-16T09:12:59;100378.63;;;13.71;100.00
60099;BME280;62818;49.394;8.686;2024-02-16T09:18:00;100351.25;;;13.90;100.00
60099;BME280;62818;49.394;8.686;2024-02-16T09:23:00;100366.59;;;14.23;100.00
60099;BME280;62818;49.394;8.686;2024-02-16T09:28:01;100371.81;;;14.37;100.00
60099;BME280;62818;49.394;8.686;2024-02-16T09:33:23;100377.88;;;14.25;100.00
60099;BME280;62818;49.394;8.686;2024-02-16T09:38:24;100389.78;;;14.29;100.00
60099;BME280;62818;49.394;8.686;2024-02-16T09:43:29;100387.03;;;14.09;100.00
60099;BME280;62818;49.394;8.686;2024-02-16T09:48:30;100399.63;;;14.28;100.00
60099;BME280;62818;49.394;8.686;2024-02-16T09:53:31;100390.75;;;14.55;100.00
60099;BME280;62818;49.394;8.686;2024-02-16T09:58:32;100395.88;;;14.63;100.00
60099;BME280;62818;49.394;8.686;2024-02-16T10:03:33;100409.75;;;14.39;100.00
60099;BME280;62818;49.394;8.686;2024-02-16T10:08:34;100414.53;;;14.57;100.00
60099;BME280;62818;49.394;8.686;2024-02-16T10:13:35;100415.69;;;15.02;100.00
60099;BME280;62818;49.394;8.686;2024-02-16T10:18:36;100415.28;;;15.96;100.00
60099;BME280;62818;49.394;8.686;2024-02-16T10:23:37;100418.41;;;17.20;100.00
60099;BME280;62818;49.394;8.686;2024-02-16T10:28:38;100424.91;;;17.61;100.00
60099;BME280;62818;49.394;8.686;2024-02-16T10:33:39;100425.72;;;17.62;100.00
60099;BME280;62818;49.394;8.686;2024-02-16T10:38:44;100432.91;;;17.05;100.00
60099;BME280;62818;49.394;8.686;2024-02-16T10:43:48;100448.06;;;18.17;100.00
60099;BME280;62818;49.394;8.686;2024-02-16T10:48:49;100444.06;;;17.83;100.00
60099;BME280;62818;49.394;8.686;2024-02-16T10:53:52;100436.00;;;18.62;95.73
60099;BME280;62818;49.394;8.686;2024-02-16T10:59:00;100436.88;;;18.74;93.50
60099;BME280;62818;49.394;8.686;2024-02-16T11:04:07;100431.38;;;18.15;99.15
60099;BME280;62818;49.394;8.686;2024-02-16T11:09:09;100435.06;;;17.53;100.00
60099;BME280;62818;49.394;8.686;2024-02-16T11:14:15;100435.59;;;17.37;100.00
60099;BME280;62818;49.394;8.686;2024-02-16T11:19:16;100433.69;;;18.11;100.00
60099;BME280;62818;49.394;8.686;2024-02-16T11:24:17;100436.69;;;17.78;100.00
60099;BME280;62818;49.394;8.686;2024-02-16T11:29:21;100433.13;;;17.85;100.00
60099;BME280;62818;49.394;8.686;2024-02-16T11:34:23;100435.50;;;18.17;98.94
60099;BME280;62818;49.394;8.686;2024-02-16T11:39:26;100440.19;;;19.17;95.43
60099;BME280;62818;49.394;8.686;2024-02-16T11:44:29;100428.81;;;18.74;95.26
60099;BME280;62818;49.394;8.686;2024-02-16T11:49:31;100425.03;;;18.93;94.03
60099;BME280;62818;49.394;8.686;2024-02-16T11:54:32;100438.81;;;18.67;91.38
60099;BME280;62818;49.394;8.686;2024-02-16T11:59:33;100423.53;;;18.97;90.75
60099;BME280;62818;49.394;8.686;2024-02-16T12:04:34;100421.97;;;18.42;93.87
60099;BME280;62818;49.394;8.686;2024-02-16T12:09:34;100424.94;;;17.80;96.31
60099;BME280;62818;49.394;8.686;2024-02-16T12:14:35;100420.91;;;17.70;97.86
60099;BME280;62818;49.394;8.686;2024-02-16T12:19:43;100428.84;;;18.02;97.83
60099;BME280;62818;49.394;8.686;2024-02-16T12:24:46;100422.88;;;18.18;96.16
60099;BME280;62818;49.394;8.686;2024-02-16T12:29:48;100432.31;;;17.84;96.74
60099;BME280;62818;49.394;8.686;2024-02-16T12:34:48;100425.97;;;17.78;97.94
60099;BME280;62818;49.394;8.686;2024-02-16T12:39:49;100433.91;;;17.67;99.65
60099;BME280;62818;49.394;8.686;2024-02-16T12:44:49;100442.53;;;17.94;99.04
60099;BME280;62818;49.394;8.686;2024-02-16T12:49:50;100442.91;;;17.48;100.00
60099;BME280;62818;49.394;8.686;2024-02-16T12:54:53;100434.25;;;17.52;100.00
60099;BME280;62818;49.394;8.686;2024-02-16T12:59:54;100431.56;;;17.52;100.00
60099;BME280;62818;49.394;8.686;2024-02-16T13:04:54;100443.97;;;17.71;100.00
60099;BME280;62818;49.394;8.686;2024-02-16T13:09:55;100434.38;;;17.64;100.00
60099;BME280;62818;49.394;8.686;2024-02-16T13:14:55;100435.06;;;17.77;100.00
60099;BME280;62818;49.394;8.686;2024-02-16T13:19:56;100441.13;;;17.42;100.00
60099;BME280;62818;49.394;8.686;2024-02-16T13:25:04;100445.06;;;17.39;100.00
60099;BME280;62818;49.394;8.686;2024-02-16T13:30:09;100449.16;;;17.42;100.00
60099;BME280;62818;49.394;8.686;2024-02-16T13:35:10;100453.78;;;17.84;100.00
60099;BME280;62818;49.394;8.686;2024-02-16T13:40:11;100447.78;;;17.64;100.00
60099;BME280;62818;49.394;8.686;2024-02-16T13:45:12;100445.97;;;17.27;100.00
60099;BME280;62818;49.394;8.686;2024-02-16T13:50:12;100450.50;;;17.26;100.00
60099;BME280;62818;49.394;8.686;2024-02-16T13:55:13;100460.41;;;17.57;100.00
60099;BME280;62818;49.394;8.686;2024-02-16T14:00:14;100469.06;;;17.21;100.00
60099;BME280;62818;49.394;8.686;2024-02-16T14:05:16;100466.81;;;17.25;100.00
60099;BME280;62818;49.394;8.686;2024-02-16T14:10:17;100466.66;;;17.13;100.00
60099;BME280;62818;49.394;8.686;2024-02-16T14:15:17;100472.03;;;17.13;100.00
60099;BME280;62818;49.394;8.686;2024-02-16T14:20:19;100477.34;;;16.82;100.00
60099;BME280;62818;49.394;8.686;2024-02-16T14:25:22;100492.16;;;16.84;100.00
60099;BME280;62818;49.394;8.686;2024-02-16T14:30:24;100479.59;;;16.85;100.00
60099;BME280;62818;49.394;8.686;2024-02-16T14:35:24;100492.53;;;16.88;100.00
60099;BME280;62818;49.394;8.686;2024-02-16T14:40:25;100499.88;;;16.55;100.00
60099;BME280;62818;49.394;8.686;2024-02-16T14:45:25;100515.75;;;16.50;100.00
60099;BME280;62818;49.394;8.686;2024-02-16T14:50:26;100518.88;;;16.20;100.00
60099;BME280;62818;49.394;8.686;2024-02-16T14:55:26;100518.47;;;16.30;100.00
60099;BME280;62818;49.394;8.686;2024-02-16T15:00:27;100523.84;;;16.17;100.00
60099;BME280;62818;49.394;8.686;2024-02-16T15:05:27;100526.72;;;16.15;100.00
60099;BME280;62818;49.394;8.686;2024-02-16T15:10:28;100538.22;;;16.16;100.00
60099;BME280;62818;49.394;8.686;2024-02-16T15:15:29;100534.94;;;16.20;100.00
60099;BME280;62818;49.394;8.686;2024-02-16T15:20:29;100540.72;;;15.98;100.00
60099;BME280;62818;49.394;8.686;2024-02-16T15:25:30;100536.19;;;15.92;100.00
60099;BME280;62818;49.394;8.686;2024-02-16T15:30:31;100539.88;;;16.04;100.00
60099;BME280;62818;49.394;8.686;2024-02-16T15:35:31;100541.09;;;16.27;100.00
60099;BME280;62818;49.394;8.686;2024-02-16T15:40:32;100551.81;;;16.14;100.00
60099;BME280;62818;49.394;8.686;2024-02-16T15:45:32;100555.31;;;16.35;100.00
60099;BME280;62818;49.394;8.686;2024-02-16T15:50:43;100552.59;;;16.48;100.00
60099;BME280;62818;49.394;8.686;2024-02-16T15:55:43;100571.16;;;16.10;100.00
60099;BME280;62818;49.394;8.686;2024-02-16T16:00:52;100578.34;;;16.09;100.00
60099;BME280;62818;49.394;8.686;2024-02-16T16:05:53;100591.72;;;15.83;100.00
60099;BME280;62818;49.394;8.686;2024-02-16T16:10:54;100598.91;;;15.76;100.00
60099;BME280;62818;49.394;8.686;2024-02-16T16:15:57;100629.56;;;14.85;100.00
60099;BME280;62818;49.394;8.686;2024-02-16T16:20:58;100630.38;;;14.03;100.00
60099;BME280;62818;49.394;8.686;2024-02-16T16:25:58;100645.75;;;14.50;100.00
60099;BME280;62818;49.394;8.686;2024-02-16T16:30:59;100656.25;;;14.30;100.00
60099;BME280;62818;49.394;8.686;2024-02-16T16:35:59;100658.25;;;14.28;100.00
60099;BME280;62818;49.394;8.686;2024-02-16T16:41:03;100666.34;;;13.92;100.00
60099;BME280;62818;49.394;8.686;2024-02-16T16:46:05;100688.41;;;13.65;100.00
60099;BME280;62818;49.394;8.686;2024-02-16T16:51:07;100689.75;;;13.76;100.00
60099;BME280;62818;49.394;8.686;2024-02-16T16:56:08;100709.88;;;13.64;100.00
60099;BME280;62818;49.394;8.686;2024-02-16T17:01:10;100726.34;;;13.67;100.00
60099;BME280;62818;49.394;8.686;2024-02-16T17:06:12;100742.03;;;13.77;100.00
60099;BME280;62818;49.394;8.686;2024-02-16T17:11:12;100755.75;;;13.45;100.00
60099;BME280;62818;49.394;8.686;2024-02-16T17:16:14;100758.84;;;13.63;100.00
60099;BME280;62818;49.394;8.686;2024-02-16T17:21:14;100762.75;;;13.46;100.00
60099;BME280;62818;49.394;8.686;2024-02-16T17:26:15;100760.53;;;13.34;100.00
60099;BME280;62818;49.394;8.686;2024-02-16T17:31:15;100768.47;;;13.64;100.00
60099;BME280;62818;49.394;8.686;2024-02-16T17:36:16;100782.09;;;13.69;100.00
60099;BME280;62818;49.394;8.686;2024-02-16T17:41:21;100789.72;;;13.72;100.00
60099;BME280;62818;49.394;8.686;2024-02-16T17:46:22;100795.13;;;13.64;100.00
60099;BME280;62818;49.394;8.686;2024-02-16T17:51:22;100804.16;;;13.48;100.00
60099;BME280;62818;49.394;8.686;2024-02-16T17:56:24;100807.28;;;13.37;100.00
60099;BME280;62818;49.394;8.686;2024-02-16T18:01:24;100820.75;;;13.21;100.00
60099;BME280;62818;49.394;8.686;2024-02-16T18:06:24;100822.31;;;13.45;100.00
60099;BME280;62818;49.394;8.686;2024-02-16T18:11:25;100825.38;;;13.56;100.00
60099;BME280;62818;49.394;8.686;2024-02-16T18:16:26;100833.44;;;13.63;100.00
60099;BME280;62818;49.394;8.686;2024-02-16T18:21:27;100835.34;;;13.10;100.00
60099;BME280;62818;49.394;8.686;2024-02-16T18:26:27;100837.34;;;13.08;100.00
60099;BME280;62818;49.394;8.686;2024-02-16T18:31:28;100847.81;;;13.24;100.00
60099;BME280;62818;49.394;8.686;2024-02-16T18:36:30;100844.97;;;12.89;100.00
60099;BME280;62818;49.394;8.686;2024-02-16T18:41:31;100847.88;;;12.79;100.00
60099;BME280;62818;49.394;8.686;2024-02-16T18:46:31;100850.88;;;12.76;100.00
60099;BME280;62818;49.394;8.686;2024-02-16T18:51:34;100867.34;;;12.72;100.00
60099;BME280;62818;49.394;8.686;2024-02-16T18:56:35;100856.44;;;12.67;100.00
60099;BME280;62818;49.394;8.686;2024-02-16T19:01:37;100864.88;;;12.70;100.00
60099;BME280;62818;49.394;8.686;2024-02-16T19:06:37;100882.66;;;12.47;100.00
60099;BME280;62818;49.394;8.686;2024-02-16T19:11:38;100891.59;;;12.54;100.00
60099;BME280;62818;49.394;8.686;2024-02-16T19:16:38;100889.22;;;12.59;100.00
60099;BME280;62818;49.394;8.686;2024-02-16T19:21:39;100897.47;;;12.72;100.00
60099;BME280;62818;49.394;8.686;2024-02-16T19:26:39;100903.38;;;12.29;100.00
60099;BME280;62818;49.394;8.686;2024-02-16T19:31:40;100911.59;;;12.42;100.00
60099;BME280;62818;49.394;8.686;2024-02-16T19:36:40;100912.91;;;12.46;100.00
60099;BME280;62818;49.394;8.686;2024-02-16T19:41:48;100921.75;;;12.38;100.00
60099;BME280;62818;49.394;8.686;2024-02-16T19:46:49;100917.75;;;12.42;100.00
60099;BME280;62818;49.394;8.686;2024-02-16T19:51:50;100926.53;;;12.51;100.00
60099;BME280;62818;49.394;8.686;2024-02-16T19:56:50;100932.88;;;12.42;100.00
60099;BME280;62818;49.394;8.686;2024-02-16T20:01:51;100925.69;;;12.50;100.00
60099;BME280;62818;49.394;8.686;2024-02-16T20:06:51;100938.25;;;12.26;100.00
60099;BME280;62818;49.394;8.686;2024-02-16T20:11:52;100938.72;;;12.37;100.00
60099;BME280;62818;49.394;8.686;2024-02-16T20:16:52;100939.78;;;12.20;100.00
60099;BME280;62818;49.394;8.686;2024-02-16T20:21:53;100952.69;;;12.31;100.00
60099;BME280;62818;49.394;8.686;2024-02-16T20:26:54;100947.75;;;12.20;100.00
60099;BME280;62818;49.394;8.686;2024-02-16T20:31:54;100948.97;;;12.40;100.00
60099;BME280;62818;49.394;8.686;2024-02-16T20:36:55;100955.22;;;12.25;100.00
60099;BME280;62818;49.394;8.686;2024-02-16T20:41:55;100966.13;;;12.38;100.00
60099;BME280;62818;49.394;8.686;2024-02-16T20:46:56;100967.00;;;12.61;100.00
60099;BME280;62818;49.394;8.686;2024-02-16T20:51:56;100972.50;;;12.21;100.00
60099;BME280;62818;49.394;8.686;2024-02-16T20:56:56;100976.53;;;12.01;100.00
60099;BME280;62818;49.394;8.686;2024-02-16T21:01:57;100982.16;;;12.14;100.00
60099;BME280;62818;49.394;8.686;2024-02-16T21:06:57;100983.75;;;12.31;100.00
60099;BME280;62818;49.394;8.686;2024-02-16T21:11:59;100984.84;;;12.06;100.00
60099;BME280;62818;49.394;8.686;2024-02-16T21:17:00;100988.66;;;12.11;100.00
60099;BME280;62818;49.394;8.686;2024-02-16T21:22:01;100997.06;;;12.23;100.00
60099;BME280;62818;49.394;8.686;2024-02-16T21:27:01;100997.13;;;11.99;100.00
60099;BME280;62818;49.394;8.686;2024-02-16T21:32:05;101008.91;;;12.20;100.00
60099;BME280;62818;49.394;8.686;2024-02-16T21:37:05;101004.63;;;11.95;100.00
60099;BME280;62818;49.394;8.686;2024-02-16T21:42:06;101010.72;;;12.20;100.00
60099;BME280;62818;49.394;8.686;2024-02-16T21:47:06;101012.06;;;12.16;100.00
60099;BME280;62818;49.394;8.686;2024-02-16T21:52:09;101014.88;;;12.14;100.00
60099;BME280;62818;49.394;8.686;2024-02-16T21:57:10;101012.38;;;12.13;100.00
60099;BME280;62818;49.394;8.686;2024-02-16T22:02:10;101022.38;;;11.95;100.00
60099;BME280;62818;49.394;8.686;2024-02-16T22:07:11;101021.69;;;12.09;100.00
60099;BME280;62818;49.394;8.686;2024-02-16T22:12:11;101028.88;;;12.00;100.00
60099;BME280;62818;49.394;8.686;2024-02-16T22:17:12;101030.63;;;12.24;100.00
60099;BME280;62818;49.394;8.686;2024-02-16T22:22:12;101036.34;;;12.05;100.00
60099;BME280;62818;49.394;8.686;2024-02-16T22:27:13;101040.59;;;12.22;100.00
60099;BME280;62818;49.394;8.686;2024-02-16T22:32:13;101035.78;;;12.33;100.00
60099;BME280;62818;49.394;8.686;2024-02-16T22:37:14;101040.88;;;12.43;100.00
60099;BME280;62818;49.394;8.686;2024-02-16T22:42:14;101040.97;;;12.11;100.00
60099;BME280;62818;49.394;8.686;2024-02-16T22:47:15;101044.59;;;12.10;100.00
60099;BME280;62818;49.394;8.686;2024-02-16T22:52:15;101048.91;;;12.19;100.00
60099;BME280;62818;49.394;8.686;2024-02-16T22:57:16;101052.44;;;12.03;100.00
60099;BME280;62818;49.394;8.686;2024-02-16T23:02:16;101066.53;;;12.20;100.00
60099;BME280;62818;49.394;8.686;2024-02-16T23:07:17;101076.31;;;12.19;100.00
60099;BME280;62818;49.394;8.686;2024-02-16T23:12:18;101074.16;;;12.31;100.00
60099;BME280;62818;49.394;8.686;2024-02-16T23:17:19;101088.78;;;12.27;100.00
60099;BME280;62818;49.394;8.686;2024-02-16T23:22:20;101099.94;;;12.77;100.00
60099;BME280;62818;49.394;8.686;2024-02-16T23:27:20;101093.38;;;12.41;100.00
60099;BME280;62818;49.394;8.686;2024-02-16T23:32:20;101102.69;;;12.53;100.00
60099;BME280;62818;49.394;8.686;2024-02-16T23:37:21;101112.69;;;12.19;100.00
60099;BME280;62818;49.394;8.686;2024-02-16T23:42:22;101109.66;;;12.46;100.00
60099;BME280;62818;49.394;8.686;2024-02-16T23:47:25;101114.00;;;12.23;100.00
60099;BME280;62818;49.394;8.686;2024-02-16T23:52:26;101115.72;;;12.16;100.00
60099;BME280;62818;49.394;8.686;2024-02-16T23:57:29;101128.16;;;12.15;100.00
